sensor_id;sensor_type;location;lat;lon;timestamp;temperature;humidity
1570;DHT22;778;50.120;8.698;2023-04-16T00:01:20;10.20;99.90
1570;DHT22;778;50.120;8.698;2023-04-16T00:03:48;10.30;99.90
1570;DHT22;778;50.120;8.698;2023-04-16T00:06:17;10.30;99.90
1570;DHT22;778;50.120;8.698;2023-04-16T00:08:45;10.20;99.90
1570;DHT22;778;50.120;8.698;2023-04-16T00:11:14;10.20;99.90
1570;DHT22;778;50.120;8.698;2023-04-16T00:13:42;10.20;99.90
1570;DHT22;778;50.120;8.698;2023-04-16T00:16:12;10.20;99.90
1570;DHT22;778;50.120;8.698;2023-04-16T00:18:41;10.20;99.90
1570;DHT22;778;50.120;8.698;2023-04-16T00:21:09;10.20;99.90
1570;DHT22;778;50.120;8.698;2023-04-16T00:23:38;10.30;99.90
1570;DHT22;778;50.120;8.698;2023-04-16T00:26:07;10.30;99.90
1570;DHT22;778;50.120;8.698;2023-04-16T00:28:38;10.20;99.90
1570;DHT22;778;50.120;8.698;2023-04-16T00:31:07;10.20;99.90
1570;DHT22;778;50.120;8.698;2023-04-16T00:33:37;10.20;99.90
1570;DHT22;778;50.120;8.698;2023-04-16T00:36:06;10.20;99.90
1570;DHT22;778;50.120;8.698;2023-04-16T00:38:35;10.20;99.90
1570;DHT22;778;50.120;8.698;2023-04-16T00:41:04;10.20;99.90
1570;DHT22;778;50.120;8.698;2023-04-16T00:43:32;10.20;99.90
1570;DHT22;778;50.120;8.698;2023-04-16T00:46:03;10.20;99.90
1570;DHT22;778;50.120;8.698;2023-04-16T00:48:33;10.20;99.90
1570;DHT22;778;50.120;8.698;2023-04-16T00:51:05;10.20;99.90
1570;DHT22;778;50.120;8.698;2023-04-16T00:53:34;10.20;99.90
1570;DHT22;778;50.120;8.698;2023-04-16T00:56:05;10.20;99.90
1570;DHT22;778;50.120;8.698;2023-04-16T00:58:34;10.20;99.90
1570;DHT22;778;50.120;8.698;2023-04-16T01:01:03;10.20;99.90
1570;DHT22;778;50.120;8.698;2023-04-16T01:03:36;10.20;99.90
1570;DHT22;778;50.120;8.698;2023-04-16T01:06:08;10.10;99.90
1570;DHT22;778;50.120;8.698;2023-04-16T01:08:38;10.20;99.90
1570;DHT22;778;50.120;8.698;2023-04-16T01:11:07;10.20;99.90
1570;DHT22;778;50.120;8.698;2023-04-16T01:13:36;10.20;99.90
1570;DHT22;778;50.120;8.698;2023-04-16T01:16:06;10.20;99.90
1570;DHT22;778;50.120;8.698;2023-04-16T01:18:34;10.20;99.90
1570;DHT22;778;50.120;8.698;2023-04-16T01:21:04;10.20;99.90
1570;DHT22;778;50.120;8.698;2023-04-16T01:23:33;10.20;99.90
1570;DHT22;778;50.120;8.698;2023-04-16T01:26:01;10.20;99.90
1570;DHT22;778;50.120;8.698;2023-04-16T01:28:30;10.20;99.90
1570;DHT22;778;50.120;8.698;2023-04-16T01:30:58;10.20;99.90
1570;DHT22;778;50.120;8.698;2023-04-16T01:33:43;10.10;99.90
1570;DHT22;778;50.120;8.698;2023-04-16T01:36:13;10.10;99.90
1570;DHT22;778;50.120;8.698;2023-04-16T01:38:42;10.20;99.90
1570;DHT22;778;50.120;8.698;2023-04-16T01:41:10;10.10;99.90
1570;DHT22;778;50.120;8.698;2023-04-16T01:43:40;10.10;99.90
1570;DHT22;778;50.120;8.698;2023-04-16T01:46:14;10.00;99.90
1570;DHT22;778;50.120;8.698;2023-04-16T01:48:45;10.10;99.90
1570;DHT22;778;50.120;8.698;2023-04-16T01:51:15;10.00;99.90
1570;DHT22;778;50.120;8.698;2023-04-16T01:53:44;10.10;99.90
1570;DHT22;778;50.120;8.698;2023-04-16T01:56:12;10.10;99.90
1570;DHT22;778;50.120;8.698;2023-04-16T01:58:41;10.10;99.90
1570;DHT22;778;50.120;8.698;2023-04-16T02:01:09;10.10;99.90
1570;DHT22;778;50.120;8.698;2023-04-16T02:03:39;10.00;99.90
1570;DHT22;778;50.120;8.698;2023-04-16T02:06:08;9.90;99.90
1570;DHT22;778;50.120;8.698;2023-04-16T02:08:38;10.00;99.90
1570;DHT22;778;50.120;8.698;2023-04-16T02:11:06;10.00;99.90
1570;DHT22;778;50.120;8.698;2023-04-16T02:13:35;9.90;99.90
1570;DHT22;778;50.120;8.698;2023-04-16T02:16:04;10.00;99.90
1570;DHT22;778;50.120;8.698;2023-04-16T02:18:47;9.90;99.90
1570;DHT22;778;50.120;8.698;2023-04-16T02:21:17;10.00;99.90
1570;DHT22;778;50.120;8.698;2023-04-16T02:23:47;10.00;99.90
1570;DHT22;778;50.120;8.698;2023-04-16T02:26:22;10.00;99.90
1570;DHT22;778;50.120;8.698;2023-04-16T02:28:53;10.10;99.90
1570;DHT22;778;50.120;8.698;2023-04-16T02:31:26;10.10;99.90
1570;DHT22;778;50.120;8.698;2023-04-16T02:33:57;10.00;99.90
1570;DHT22;778;50.120;8.698;2023-04-16T02:36:25;10.10;99.90
1570;DHT22;778;50.120;8.698;2023-04-16T02:38:56;10.20;99.90
1570;DHT22;778;50.120;8.698;2023-04-16T02:41:25;10.20;99.90
1570;DHT22;778;50.120;8.698;2023-04-16T02:43:53;10.20;99.90
1570;DHT22;778;50.120;8.698;2023-04-16T02:46:22;10.30;99.90
1570;DHT22;778;50.120;8.698;2023-04-16T02:48:50;10.30;99.90
1570;DHT22;778;50.120;8.698;2023-04-16T02:51:19;10.30;99.90
1570;DHT22;778;50.120;8.698;2023-04-16T02:53:47;10.30;99.90
1570;DHT22;778;50.120;8.698;2023-04-16T02:56:17;10.30;99.90
1570;DHT22;778;50.120;8.698;2023-04-16T02:58:46;10.20;99.90
1570;DHT22;778;50.120;8.698;2023-04-16T03:01:14;10.20;99.90
1570;DHT22;778;50.120;8.698;2023-04-16T03:03:44;10.10;99.90
1570;DHT22;778;50.120;8.698;2023-04-16T03:06:12;10.20;99.90
1570;DHT22;778;50.120;8.698;2023-04-16T03:08:41;10.20;99.90
1570;DHT22;778;50.120;8.698;2023-04-16T03:11:09;10.20;99.90
1570;DHT22;778;50.120;8.698;2023-04-16T03:13:39;10.10;99.90
1570;DHT22;778;50.120;8.698;2023-04-16T03:16:07;10.10;99.90
1570;DHT22;778;50.120;8.698;2023-04-16T03:18:36;10.10;99.90
1570;DHT22;778;50.120;8.698;2023-04-16T03:21:04;10.10;99.90
1570;DHT22;778;50.120;8.698;2023-04-16T03:23:33;10.00;99.90
1570;DHT22;778;50.120;8.698;2023-04-16T03:26:03;10.00;99.90
1570;DHT22;778;50.120;8.698;2023-04-16T03:28:32;10.00;99.90
1570;DHT22;778;50.120;8.698;2023-04-16T03:31:02;10.00;99.90
1570;DHT22;778;50.120;8.698;2023-04-16T03:33:31;10.00;99.90
1570;DHT22;778;50.120;8.698;2023-04-16T03:36:00;10.10;99.90
1570;DHT22;778;50.120;8.698;2023-04-16T03:38:30;10.00;99.90
1570;DHT22;778;50.120;8.698;2023-04-16T03:40:58;10.10;99.90
1570;DHT22;778;50.120;8.698;2023-04-16T03:43:28;10.10;99.90
1570;DHT22;778;50.120;8.698;2023-04-16T03:45:57;10.00;99.90
1570;DHT22;778;50.120;8.698;2023-04-16T03:48:27;10.00;99.90
1570;DHT22;778;50.120;8.698;2023-04-16T03:50:57;10.00;99.90
1570;DHT22;778;50.120;8.698;2023-04-16T03:53:26;9.90;99.90
1570;DHT22;778;50.120;8.698;2023-04-16T03:55:54;9.90;99.90
1570;DHT22;778;50.120;8.698;2023-04-16T03:58:23;9.90;99.90
1570;DHT22;778;50.120;8.698;2023-04-16T04:00:52;9.80;99.90
1570;DHT22;778;50.120;8.698;2023-04-16T04:03:22;9.80;99.90
1570;DHT22;778;50.120;8.698;2023-04-16T04:05:54;9.80;99.90
1570;DHT22;778;50.120;8.698;2023-04-16T04:08:27;9.70;99.90
1570;DHT22;778;50.120;8.698;2023-04-16T04:10:55;9.80;99.90
1570;DHT22;778;50.120;8.698;2023-04-16T04:13:24;9.70;99.90
1570;DHT22;778;50.120;8.698;2023-04-16T04:15:53;9.70;99.90
1570;DHT22;778;50.120;8.698;2023-04-16T04:18:22;9.70;99.90
1570;DHT22;778;50.120;8.698;2023-04-16T04:20:53;9.70;99.90
1570;DHT22;778;50.120;8.698;2023-04-16T04:23:26;9.70;99.90
1570;DHT22;778;50.120;8.698;2023-04-16T04:25:54;9.80;99.90
1570;DHT22;778;50.120;8.698;2023-04-16T04:28:23;9.80;99.90
1570;DHT22;778;50.120;8.698;2023-04-16T04:30:52;9.80;99.90
1570;DHT22;778;50.120;8.698;2023-04-16T04:33:20;9.80;99.90
1570;DHT22;778;50.120;8.698;2023-04-16T04:35:50;9.80;99.90
1570;DHT22;778;50.120;8.698;2023-04-16T04:38:21;9.80;99.90
1570;DHT22;778;50.120;8.698;2023-04-16T04:40:51;9.80;99.90
1570;DHT22;778;50.120;8.698;2023-04-16T04:43:22;9.80;99.90
1570;DHT22;778;50.120;8.698;2023-04-16T04:45:50;9.90;99.90
1570;DHT22;778;50.120;8.698;2023-04-16T04:48:19;9.90;99.90
1570;DHT22;778;50.120;8.698;2023-04-16T04:50:53;9.90;99.90
1570;DHT22;778;50.120;8.698;2023-04-16T04:53:24;9.90;99.90
1570;DHT22;778;50.120;8.698;2023-04-16T04:55:53;9.90;99.90
1570;DHT22;778;50.120;8.698;2023-04-16T04:58:34;10.00;99.90
1570;DHT22;778;50.120;8.698;2023-04-16T05:01:03;9.90;99.90
1570;DHT22;778;50.120;8.698;2023-04-16T05:03:32;10.00;99.90
1570;DHT22;778;50.120;8.698;2023-04-16T05:06:01;10.00;99.90
1570;DHT22;778;50.120;8.698;2023-04-16T05:08:31;10.00;99.90
1570;DHT22;778;50.120;8.698;2023-04-16T05:10:59;10.00;99.90
1570;DHT22;778;50.120;8.698;2023-04-16T05:13:27;10.00;99.90
1570;DHT22;778;50.120;8.698;2023-04-16T05:15:56;10.00;99.90
1570;DHT22;778;50.120;8.698;2023-04-16T05:18:24;10.00;99.90
1570;DHT22;778;50.120;8.698;2023-04-16T05:20:53;10.10;99.90
1570;DHT22;778;50.120;8.698;2023-04-16T05:23:22;10.10;99.90
1570;DHT22;778;50.120;8.698;2023-04-16T05:25:51;10.10;99.90
1570;DHT22;778;50.120;8.698;2023-04-16T05:28:20;10.10;99.90
1570;DHT22;778;50.120;8.698;2023-04-16T05:30:49;10.10;99.90
1570;DHT22;778;50.120;8.698;2023-04-16T05:33:17;10.10;99.90
1570;DHT22;778;50.120;8.698;2023-04-16T05:35:46;10.10;99.90
1570;DHT22;778;50.120;8.698;2023-04-16T05:38:15;10.10;99.90
1570;DHT22;778;50.120;8.698;2023-04-16T05:40:43;10.20;99.90
1570;DHT22;778;50.120;8.698;2023-04-16T05:43:13;10.20;99.90
1570;DHT22;778;50.120;8.698;2023-04-16T05:45:42;10.20;99.90
1570;DHT22;778;50.120;8.698;2023-04-16T05:48:10;10.20;99.90
1570;DHT22;778;50.120;8.698;2023-04-16T05:50:39;10.20;99.90
1570;DHT22;778;50.120;8.698;2023-04-16T05:53:08;10.10;99.90
1570;DHT22;778;50.120;8.698;2023-04-16T05:55:37;10.20;99.90
1570;DHT22;778;50.120;8.698;2023-04-16T05:58:05;10.20;99.90
1570;DHT22;778;50.120;8.698;2023-04-16T06:00:35;10.20;99.90
1570;DHT22;778;50.120;8.698;2023-04-16T06:03:03;10.20;99.90
1570;DHT22;778;50.120;8.698;2023-04-16T06:05:32;10.20;99.90
1570;DHT22;778;50.120;8.698;2023-04-16T06:08:01;10.20;99.90
1570;DHT22;778;50.120;8.698;2023-04-16T06:10:29;10.10;99.90
1570;DHT22;778;50.120;8.698;2023-04-16T06:12:58;10.10;99.90
1570;DHT22;778;50.120;8.698;2023-04-16T06:15:27;10.10;99.90
1570;DHT22;778;50.120;8.698;2023-04-16T06:17:57;10.10;99.90
1570;DHT22;778;50.120;8.698;2023-04-16T06:20:27;10.10;99.90
1570;DHT22;778;50.120;8.698;2023-04-16T06:22:55;10.10;99.90
1570;DHT22;778;50.120;8.698;2023-04-16T06:25:24;10.10;99.90
1570;DHT22;778;50.120;8.698;2023-04-16T06:27:52;10.20;99.90
1570;DHT22;778;50.120;8.698;2023-04-16T06:30:21;10.20;99.90
1570;DHT22;778;50.120;8.698;2023-04-16T06:32:49;10.20;99.90
1570;DHT22;778;50.120;8.698;2023-04-16T06:35:19;10.20;99.90
1570;DHT22;778;50.120;8.698;2023-04-16T06:37:48;10.10;99.90
1570;DHT22;778;50.120;8.698;2023-04-16T06:40:16;10.10;99.90
1570;DHT22;778;50.120;8.698;2023-04-16T06:42:45;10.10;99.90
1570;DHT22;778;50.120;8.698;2023-04-16T06:45:13;10.10;99.90
1570;DHT22;778;50.120;8.698;2023-04-16T06:47:42;10.10;99.90
1570;DHT22;778;50.120;8.698;2023-04-16T06:50:10;10.10;99.90
1570;DHT22;778;50.120;8.698;2023-04-16T06:52:40;10.00;99.90
1570;DHT22;778;50.120;8.698;2023-04-16T06:55:09;10.00;99.90
1570;DHT22;778;50.120;8.698;2023-04-16T06:57:38;10.00;99.90
1570;DHT22;778;50.120;8.698;2023-04-16T07:00:07;10.00;99.90
1570;DHT22;778;50.120;8.698;2023-04-16T07:02:36;10.00;99.90
1570;DHT22;778;50.120;8.698;2023-04-16T07:05:06;10.00;99.90
1570;DHT22;778;50.120;8.698;2023-04-16T07:07:34;10.00;99.90
1570;DHT22;778;50.120;8.698;2023-04-16T07:10:05;10.00;99.90
1570;DHT22;778;50.120;8.698;2023-04-16T07:12:35;9.90;99.90
1570;DHT22;778;50.120;8.698;2023-04-16T07:15:04;10.00;99.90
1570;DHT22;778;50.120;8.698;2023-04-16T07:17:34;10.00;99.90
1570;DHT22;778;50.120;8.698;2023-04-16T07:20:03;10.00;99.90
1570;DHT22;778;50.120;8.698;2023-04-16T07:22:33;10.00;99.90
1570;DHT22;778;50.120;8.698;2023-04-16T07:25:01;10.10;99.90
1570;DHT22;778;50.120;8.698;2023-04-16T07:27:32;10.20;99.90
1570;DHT22;778;50.120;8.698;2023-04-16T07:30:00;10.20;99.90
1570;DHT22;778;50.120;8.698;2023-04-16T07:32:28;10.20;99.90
1570;DHT22;778;50.120;8.698;2023-04-16T07:34:57;10.20;99.90
1570;DHT22;778;50.120;8.698;2023-04-16T07:37:26;10.20;99.90
1570;DHT22;778;50.120;8.698;2023-04-16T07:39:55;10.20;99.90
1570;DHT22;778;50.120;8.698;2023-04-16T07:42:25;10.20;99.90
1570;DHT22;778;50.120;8.698;2023-04-16T07:44:54;10.20;99.90
1570;DHT22;778;50.120;8.698;2023-04-16T07:47:23;10.30;99.90
1570;DHT22;778;50.120;8.698;2023-04-16T07:49:52;10.30;99.90
1570;DHT22;778;50.120;8.698;2023-04-16T07:52:20;10.30;99.90
1570;DHT22;778;50.120;8.698;2023-04-16T07:54:49;10.40;99.90
1570;DHT22;778;50.120;8.698;2023-04-16T07:57:18;10.40;99.90
1570;DHT22;778;50.120;8.698;2023-04-16T07:59:48;10.30;99.90
1570;DHT22;778;50.120;8.698;2023-04-16T08:02:16;10.30;99.90
1570;DHT22;778;50.120;8.698;2023-04-16T08:04:45;10.40;99.90
1570;DHT22;778;50.120;8.698;2023-04-16T08:07:14;10.40;99.90
1570;DHT22;778;50.120;8.698;2023-04-16T08:09:50;10.40;99.90
1570;DHT22;778;50.120;8.698;2023-04-16T08:12:19;10.50;99.90
1570;DHT22;778;50.120;8.698;2023-04-16T08:14:49;10.50;99.90
1570;DHT22;778;50.120;8.698;2023-04-16T08:17:17;10.60;99.90
1570;DHT22;778;50.120;8.698;2023-04-16T08:19:46;10.60;99.90
1570;DHT22;778;50.120;8.698;2023-04-16T08:22:14;10.70;99.90
1570;DHT22;778;50.120;8.698;2023-04-16T08:24:43;10.70;99.90
1570;DHT22;778;50.120;8.698;2023-04-16T08:27:12;10.70;99.90
1570;DHT22;778;50.120;8.698;2023-04-16T08:29:45;10.70;99.90
1570;DHT22;778;50.120;8.698;2023-04-16T08:32:15;10.70;99.90
1570;DHT22;778;50.120;8.698;2023-04-16T08:34:44;10.60;99.90
1570;DHT22;778;50.120;8.698;2023-04-16T08:37:13;10.60;99.90
1570;DHT22;778;50.120;8.698;2023-04-16T08:39:41;10.70;99.90
1570;DHT22;778;50.120;8.698;2023-04-16T08:42:16;10.70;99.90
1570;DHT22;778;50.120;8.698;2023-04-16T08:44:51;10.70;99.90
1570;DHT22;778;50.120;8.698;2023-04-16T08:47:23;10.80;99.90
1570;DHT22;778;50.120;8.698;2023-04-16T08:49:55;10.90;99.90
1570;DHT22;778;50.120;8.698;2023-04-16T08:52:27;10.90;99.90
1570;DHT22;778;50.120;8.698;2023-04-16T08:55:03;10.90;99.90
1570;DHT22;778;50.120;8.698;2023-04-16T08:57:38;11.00;99.90
1570;DHT22;778;50.120;8.698;2023-04-16T09:00:12;11.10;99.90
1570;DHT22;778;50.120;8.698;2023-04-16T09:02:43;11.00;99.90
1570;DHT22;778;50.120;8.698;2023-04-16T09:05:14;11.00;99.90
1570;DHT22;778;50.120;8.698;2023-04-16T09:07:44;11.00;99.90
1570;DHT22;778;50.120;8.698;2023-04-16T09:10:14;11.00;99.90
1570;DHT22;778;50.120;8.698;2023-04-16T09:12:44;11.00;99.90
1570;DHT22;778;50.120;8.698;2023-04-16T09:15:13;11.10;99.90
1570;DHT22;778;50.120;8.698;2023-04-16T09:17:42;11.20;99.90
1570;DHT22;778;50.120;8.698;2023-04-16T09:20:11;11.20;99.90
1570;DHT22;778;50.120;8.698;2023-04-16T09:22:40;11.30;99.90
1570;DHT22;778;50.120;8.698;2023-04-16T09:25:10;11.30;99.90
1570;DHT22;778;50.120;8.698;2023-04-16T09:27:39;11.30;99.90
1570;DHT22;778;50.120;8.698;2023-04-16T09:30:22;11.40;99.90
1570;DHT22;778;50.120;8.698;2023-04-16T09:33:11;11.40;99.90
1570;DHT22;778;50.120;8.698;2023-04-16T09:35:47;11.40;99.90
1570;DHT22;778;50.120;8.698;2023-04-16T09:38:16;11.40;99.90
1570;DHT22;778;50.120;8.698;2023-04-16T09:40:45;11.50;99.90
1570;DHT22;778;50.120;8.698;2023-04-16T09:43:15;11.50;99.90
1570;DHT22;778;50.120;8.698;2023-04-16T09:45:49;11.40;99.90
1570;DHT22;778;50.120;8.698;2023-04-16T09:48:29;11.50;99.90
1570;DHT22;778;50.120;8.698;2023-04-16T09:50:58;11.50;99.90
1570;DHT22;778;50.120;8.698;2023-04-16T09:53:28;11.50;99.90
1570;DHT22;778;50.120;8.698;2023-04-16T09:55:58;11.50;99.90
1570;DHT22;778;50.120;8.698;2023-04-16T09:58:27;11.50;99.90
1570;DHT22;778;50.120;8.698;2023-04-16T10:01:00;11.60;99.90
1570;DHT22;778;50.120;8.698;2023-04-16T10:03:31;11.60;99.90
1570;DHT22;778;50.120;8.698;2023-04-16T10:06:02;11.60;99.90
1570;DHT22;778;50.120;8.698;2023-04-16T10:08:35;11.50;99.90
1570;DHT22;778;50.120;8.698;2023-04-16T10:11:03;11.60;99.90
1570;DHT22;778;50.120;8.698;2023-04-16T10:13:32;11.60;99.90
1570;DHT22;778;50.120;8.698;2023-04-16T10:16:01;11.60;99.90
1570;DHT22;778;50.120;8.698;2023-04-16T10:18:32;11.60;99.90
1570;DHT22;778;50.120;8.698;2023-04-16T10:21:01;11.60;99.90
1570;DHT22;778;50.120;8.698;2023-04-16T10:23:29;11.60;99.90
1570;DHT22;778;50.120;8.698;2023-04-16T10:26:00;11.60;99.90
1570;DHT22;778;50.120;8.698;2023-04-16T10:28:29;11.60;99.90
1570;DHT22;778;50.120;8.698;2023-04-16T10:31:02;11.60;99.90
1570;DHT22;778;50.120;8.698;2023-04-16T10:33:34;11.60;99.90
1570;DHT22;778;50.120;8.698;2023-04-16T10:36:09;11.60;99.90
1570;DHT22;778;50.120;8.698;2023-04-16T10:38:39;11.60;99.90
1570;DHT22;778;50.120;8.698;2023-04-16T10:41:08;11.60;99.90
1570;DHT22;778;50.120;8.698;2023-04-16T10:43:42;11.50;99.90
1570;DHT22;778;50.120;8.698;2023-04-16T10:46:19;11.50;99.90
1570;DHT22;778;50.120;8.698;2023-04-16T10:48:52;11.50;99.90
1570;DHT22;778;50.120;8.698;2023-04-16T10:51:29;11.50;99.90
1570;DHT22;778;50.120;8.698;2023-04-16T10:54:03;11.60;99.90
1570;DHT22;778;50.120;8.698;2023-04-16T10:56:33;11.60;99.90
1570;DHT22;778;50.120;8.698;2023-04-16T10:59:04;11.50;99.90
1570;DHT22;778;50.120;8.698;2023-04-16T11:01:34;11.50;99.90
1570;DHT22;778;50.120;8.698;2023-04-16T11:04:31;11.50;99.90
1570;DHT22;778;50.120;8.698;2023-04-16T11:07:10;11.40;99.90
1570;DHT22;778;50.120;8.698;2023-04-16T11:10:02;11.50;99.90
1570;DHT22;778;50.120;8.698;2023-04-16T11:12:33;11.50;99.90
1570;DHT22;778;50.120;8.698;2023-04-16T11:15:05;11.40;99.90
1570;DHT22;778;50.120;8.698;2023-04-16T11:17:37;11.40;99.90
1570;DHT22;778;50.120;8.698;2023-04-16T11:20:09;11.30;99.90
1570;DHT22;778;50.120;8.698;2023-04-16T11:22:47;11.30;99.90
1570;DHT22;778;50.120;8.698;2023-04-16T11:25:19;11.20;99.90
1570;DHT22;778;50.120;8.698;2023-04-16T11:27:48;11.20;99.90
1570;DHT22;778;50.120;8.698;2023-04-16T11:30:26;11.20;99.90
1570;DHT22;778;50.120;8.698;2023-04-16T11:32:55;11.20;99.90
1570;DHT22;778;50.120;8.698;2023-04-16T11:35:25;11.10;99.90
1570;DHT22;778;50.120;8.698;2023-04-16T11:37:55;11.10;99.90
1570;DHT22;778;50.120;8.698;2023-04-16T11:40:26;11.10;99.90
1570;DHT22;778;50.120;8.698;2023-04-16T11:43:00;11.20;99.90
1570;DHT22;778;50.120;8.698;2023-04-16T11:45:29;11.10;99.90
1570;DHT22;778;50.120;8.698;2023-04-16T11:47:58;11.10;99.90
1570;DHT22;778;50.120;8.698;2023-04-16T11:50:28;11.20;99.90
1570;DHT22;778;50.120;8.698;2023-04-16T11:53:03;11.30;99.90
1570;DHT22;778;50.120;8.698;2023-04-16T11:55:42;11.30;99.90
1570;DHT22;778;50.120;8.698;2023-04-16T11:58:11;11.30;99.90
1570;DHT22;778;50.120;8.698;2023-04-16T12:00:42;11.30;99.90
1570;DHT22;778;50.120;8.698;2023-04-16T12:03:11;11.30;99.90
1570;DHT22;778;50.120;8.698;2023-04-16T12:05:41;11.30;99.90
1570;DHT22;778;50.120;8.698;2023-04-16T12:08:10;11.30;99.90
1570;DHT22;778;50.120;8.698;2023-04-16T12:10:52;11.40;99.90
1570;DHT22;778;50.120;8.698;2023-04-16T12:13:21;11.40;99.90
1570;DHT22;778;50.120;8.698;2023-04-16T12:15:51;11.30;99.90
1570;DHT22;778;50.120;8.698;2023-04-16T12:18:22;11.40;99.90
1570;DHT22;778;50.120;8.698;2023-04-16T12:20:54;11.30;99.90
1570;DHT22;778;50.120;8.698;2023-04-16T12:23:24;11.40;99.90
1570;DHT22;778;50.120;8.698;2023-04-16T12:25:53;11.50;99.90
1570;DHT22;778;50.120;8.698;2023-04-16T12:28:30;11.60;99.90
1570;DHT22;778;50.120;8.698;2023-04-16T12:31:00;11.70;99.90
1570;DHT22;778;50.120;8.698;2023-04-16T12:33:29;11.80;99.90
1570;DHT22;778;50.120;8.698;2023-04-16T12:35:59;11.80;99.90
1570;DHT22;778;50.120;8.698;2023-04-16T12:38:30;11.80;99.90
1570;DHT22;778;50.120;8.698;2023-04-16T12:40:58;11.80;99.90
1570;DHT22;778;50.120;8.698;2023-04-16T12:43:28;12.00;99.90
1570;DHT22;778;50.120;8.698;2023-04-16T12:45:56;12.10;99.90
1570;DHT22;778;50.120;8.698;2023-04-16T12:48:25;12.10;99.90
1570;DHT22;778;50.120;8.698;2023-04-16T12:50:53;12.10;99.90
1570;DHT22;778;50.120;8.698;2023-04-16T12:53:23;12.20;99.90
1570;DHT22;778;50.120;8.698;2023-04-16T12:55:51;12.20;99.90
1570;DHT22;778;50.120;8.698;2023-04-16T12:58:20;12.10;99.90
1570;DHT22;778;50.120;8.698;2023-04-16T13:00:48;12.10;99.90
1570;DHT22;778;50.120;8.698;2023-04-16T13:03:17;12.10;99.90
1570;DHT22;778;50.120;8.698;2023-04-16T13:05:47;12.10;99.90
1570;DHT22;778;50.120;8.698;2023-04-16T13:08:15;12.20;99.90
1570;DHT22;778;50.120;8.698;2023-04-16T13:10:45;12.10;99.90
1570;DHT22;778;50.120;8.698;2023-04-16T13:13:13;12.10;99.90
1570;DHT22;778;50.120;8.698;2023-04-16T13:15:42;12.10;99.90
1570;DHT22;778;50.120;8.698;2023-04-16T13:18:10;12.20;99.90
1570;DHT22;778;50.120;8.698;2023-04-16T13:20:39;12.30;99.90
1570;DHT22;778;50.120;8.698;2023-04-16T13:23:07;12.30;99.90
1570;DHT22;778;50.120;8.698;2023-04-16T13:25:36;12.20;99.90
1570;DHT22;778;50.120;8.698;2023-04-16T13:28:06;12.20;99.90
1570;DHT22;778;50.120;8.698;2023-04-16T13:30:34;12.20;99.90
1570;DHT22;778;50.120;8.698;2023-04-16T13:33:03;12.30;99.90
1570;DHT22;778;50.120;8.698;2023-04-16T13:35:31;12.40;99.90
1570;DHT22;778;50.120;8.698;2023-04-16T13:38:00;12.50;99.90
1570;DHT22;778;50.120;8.698;2023-04-16T13:40:28;12.50;99.90
1570;DHT22;778;50.120;8.698;2023-04-16T13:42:57;12.60;99.90
1570;DHT22;778;50.120;8.698;2023-04-16T13:45:27;12.80;99.90
1570;DHT22;778;50.120;8.698;2023-04-16T13:47:55;12.90;99.90
1570;DHT22;778;50.120;8.698;2023-04-16T13:50:23;13.00;99.90
1570;DHT22;778;50.120;8.698;2023-04-16T13:52:52;13.10;99.90
1570;DHT22;778;50.120;8.698;2023-04-16T13:55:20;13.20;99.90
1570;DHT22;778;50.120;8.698;2023-04-16T13:57:48;13.20;99.90
1570;DHT22;778;50.120;8.698;2023-04-16T14:00:19;13.30;99.90
1570;DHT22;778;50.120;8.698;2023-04-16T14:02:50;13.40;99.90
1570;DHT22;778;50.120;8.698;2023-04-16T14:05:19;13.20;99.90
1570;DHT22;778;50.120;8.698;2023-04-16T14:07:52;13.10;99.90
1570;DHT22;778;50.120;8.698;2023-04-16T14:10:20;13.20;99.90
1570;DHT22;778;50.120;8.698;2023-04-16T14:12:49;13.20;99.90
1570;DHT22;778;50.120;8.698;2023-04-16T14:15:17;13.00;99.90
1570;DHT22;778;50.120;8.698;2023-04-16T14:17:46;12.90;99.90
1570;DHT22;778;50.120;8.698;2023-04-16T14:20:16;12.80;99.90
1570;DHT22;778;50.120;8.698;2023-04-16T14:22:44;12.80;99.90
1570;DHT22;778;50.120;8.698;2023-04-16T14:25:13;12.80;99.90
1570;DHT22;778;50.120;8.698;2023-04-16T14:27:41;12.70;99.90
1570;DHT22;778;50.120;8.698;2023-04-16T14:30:10;12.70;99.90
1570;DHT22;778;50.120;8.698;2023-04-16T14:32:39;12.70;99.90
1570;DHT22;778;50.120;8.698;2023-04-16T14:35:08;12.70;99.90
1570;DHT22;778;50.120;8.698;2023-04-16T14:37:38;12.50;99.90
1570;DHT22;778;50.120;8.698;2023-04-16T14:40:08;12.50;99.90
1570;DHT22;778;50.120;8.698;2023-04-16T14:42:38;12.50;99.90
1570;DHT22;778;50.120;8.698;2023-04-16T14:45:07;12.60;99.90
1570;DHT22;778;50.120;8.698;2023-04-16T14:47:37;12.50;99.90
1570;DHT22;778;50.120;8.698;2023-04-16T14:50:12;12.60;99.90
1570;DHT22;778;50.120;8.698;2023-04-16T14:52:42;12.60;99.90
1570;DHT22;778;50.120;8.698;2023-04-16T14:55:11;12.70;99.90
1570;DHT22;778;50.120;8.698;2023-04-16T14:57:39;12.70;99.90
1570;DHT22;778;50.120;8.698;2023-04-16T15:00:09;12.60;99.90
1570;DHT22;778;50.120;8.698;2023-04-16T15:02:39;12.70;99.90
1570;DHT22;778;50.120;8.698;2023-04-16T15:05:08;12.80;99.90
1570;DHT22;778;50.120;8.698;2023-04-16T15:07:37;12.70;99.90
1570;DHT22;778;50.120;8.698;2023-04-16T15:10:08;12.70;99.90
1570;DHT22;778;50.120;8.698;2023-04-16T15:12:38;12.70;99.90
1570;DHT22;778;50.120;8.698;2023-04-16T15:15:07;12.70;99.90
1570;DHT22;778;50.120;8.698;2023-04-16T15:17:36;12.70;99.90
1570;DHT22;778;50.120;8.698;2023-04-16T15:20:06;12.70;99.90
1570;DHT22;778;50.120;8.698;2023-04-16T15:22:36;12.70;99.90
1570;DHT22;778;50.120;8.698;2023-04-16T15:25:07;12.70;99.90
1570;DHT22;778;50.120;8.698;2023-04-16T15:27:36;12.70;99.90
1570;DHT22;778;50.120;8.698;2023-04-16T15:30:05;12.70;99.90
1570;DHT22;778;50.120;8.698;2023-04-16T15:32:34;12.70;99.90
1570;DHT22;778;50.120;8.698;2023-04-16T15:35:03;12.80;99.90
1570;DHT22;778;50.120;8.698;2023-04-16T15:37:35;12.70;99.90
1570;DHT22;778;50.120;8.698;2023-04-16T15:40:07;12.80;99.90
1570;DHT22;778;50.120;8.698;2023-04-16T15:42:36;12.80;99.90
1570;DHT22;778;50.120;8.698;2023-04-16T15:45:06;12.70;99.90
1570;DHT22;778;50.120;8.698;2023-04-16T15:47:34;12.70;99.90
1570;DHT22;778;50.120;8.698;2023-04-16T15:50:07;12.70;99.90
1570;DHT22;778;50.120;8.698;2023-04-16T15:52:35;12.70;99.90
1570;DHT22;778;50.120;8.698;2023-04-16T15:55:07;12.80;99.90
1570;DHT22;778;50.120;8.698;2023-04-16T15:57:35;12.80;99.90
1570;DHT22;778;50.120;8.698;2023-04-16T16:00:05;12.70;99.90
1570;DHT22;778;50.120;8.698;2023-04-16T16:02:39;12.70;99.90
1570;DHT22;778;50.120;8.698;2023-04-16T16:05:09;12.70;99.90
1570;DHT22;778;50.120;8.698;2023-04-16T16:07:38;12.80;99.90
1570;DHT22;778;50.120;8.698;2023-04-16T16:10:09;12.80;99.90
1570;DHT22;778;50.120;8.698;2023-04-16T16:12:39;12.80;99.90
1570;DHT22;778;50.120;8.698;2023-04-16T16:15:08;12.80;99.90
1570;DHT22;778;50.120;8.698;2023-04-16T16:17:37;12.80;99.90
1570;DHT22;778;50.120;8.698;2023-04-16T16:20:06;12.80;99.90
1570;DHT22;778;50.120;8.698;2023-04-16T16:22:36;12.80;99.90
1570;DHT22;778;50.120;8.698;2023-04-16T16:25:08;12.70;99.90
1570;DHT22;778;50.120;8.698;2023-04-16T16:27:37;12.80;99.90
1570;DHT22;778;50.120;8.698;2023-04-16T16:30:07;12.80;99.90
1570;DHT22;778;50.120;8.698;2023-04-16T16:32:36;12.80;99.90
1570;DHT22;778;50.120;8.698;2023-04-16T16:35:07;12.70;99.90
1570;DHT22;778;50.120;8.698;2023-04-16T16:37:37;12.70;99.90